sensor_id;sensor_type;location;lat;lon;timestamp;temperature;humidity
5492;DHT22;2768;53.540;10.224;2023-03-14T00:02:05;11.90;1.00
5492;DHT22;2768;53.540;10.224;2023-03-14T00:07:58;11.80;1.00
5492;DHT22;2768;53.540;10.224;2023-03-14T00:13:52;11.80;1.00
5492;DHT22;2768;53.540;10.224;2023-03-14T00:19:47;11.80;1.00
5492;DHT22;2768;53.540;10.224;2023-03-14T00:25:44;11.70;1.00
5492;DHT22;2768;53.540;10.224;2023-03-14T00:31:37;11.70;1.00
5492;DHT22;2768;53.540;10.224;2023-03-14T00:37:34;11.70;1.00
5492;DHT22;2768;53.540;10.224;2023-03-14T00:43:30;11.70;1.00
5492;DHT22;2768;53.540;10.224;2023-03-14T00:49:23;11.70;1.00
5492;DHT22;2768;53.540;10.224;2023-03-14T00:55:18;11.70;1.00
5492;DHT22;2768;53.540;10.224;2023-03-14T01:01:14;11.70;1.00
5492;DHT22;2768;53.540;10.224;2023-03-14T01:07:08;11.70;1.00
5492;DHT22;2768;53.540;10.224;2023-03-14T01:13:04;11.70;1.00
5492;DHT22;2768;53.540;10.224;2023-03-14T01:18:59;11.60;1.00
5492;DHT22;2768;53.540;10.224;2023-03-14T01:24:53;11.50;1.00
5492;DHT22;2768;53.540;10.224;2023-03-14T01:30:47;11.50;1.00
5492;DHT22;2768;53.540;10.224;2023-03-14T01:36:41;11.50;1.00
5492;DHT22;2768;53.540;10.224;2023-03-14T01:42:35;11.50;1.00
5492;DHT22;2768;53.540;10.224;2023-03-14T01:48:32;11.50;1.00
5492;DHT22;2768;53.540;10.224;2023-03-14T01:54:32;11.40;1.00
5492;DHT22;2768;53.540;10.224;2023-03-14T02:00:28;11.40;1.00
5492;DHT22;2768;53.540;10.224;2023-03-14T02:06:24;11.40;1.00
5492;DHT22;2768;53.540;10.224;2023-03-14T02:12:22;11.50;1.00
5492;DHT22;2768;53.540;10.224;2023-03-14T02:18:39;11.50;1.00
5492;DHT22;2768;53.540;10.224;2023-03-14T02:24:58;11.50;1.00
5492;DHT22;2768;53.540;10.224;2023-03-14T02:30:57;11.60;1.00
5492;DHT22;2768;53.540;10.224;2023-03-14T02:36:51;11.50;1.00
5492;DHT22;2768;53.540;10.224;2023-03-14T02:42:45;11.50;1.00
5492;DHT22;2768;53.540;10.224;2023-03-14T02:48:44;11.50;1.00
5492;DHT22;2768;53.540;10.224;2023-03-14T02:54:40;11.60;1.00
5492;DHT22;2768;53.540;10.224;2023-03-14T03:00:33;11.50;1.00
5492;DHT22;2768;53.540;10.224;2023-03-14T03:06:30;11.40;1.00
5492;DHT22;2768;53.540;10.224;2023-03-14T03:12:25;11.40;1.00
5492;DHT22;2768;53.540;10.224;2023-03-14T03:18:19;11.40;1.00
5492;DHT22;2768;53.540;10.224;2023-03-14T03:24:14;11.40;1.00
5492;DHT22;2768;53.540;10.224;2023-03-14T03:30:09;11.30;1.00
5492;DHT22;2768;53.540;10.224;2023-03-14T03:36:04;11.30;1.00
5492;DHT22;2768;53.540;10.224;2023-03-14T03:42:02;11.40;1.00
5492;DHT22;2768;53.540;10.224;2023-03-14T03:47:56;11.30;1.00
5492;DHT22;2768;53.540;10.224;2023-03-14T03:53:49;11.30;1.00
5492;DHT22;2768;53.540;10.224;2023-03-14T03:59:52;11.30;1.00
5492;DHT22;2768;53.540;10.224;2023-03-14T04:05:45;11.20;1.00
5492;DHT22;2768;53.540;10.224;2023-03-14T04:11:39;11.20;1.00
5492;DHT22;2768;53.540;10.224;2023-03-14T04:17:56;11.10;1.00
5492;DHT22;2768;53.540;10.224;2023-03-14T04:23:50;11.20;1.00
5492;DHT22;2768;53.540;10.224;2023-03-14T04:29:44;11.10;1.00
5492;DHT22;2768;53.540;10.224;2023-03-14T04:35:42;11.20;1.00
5492;DHT22;2768;53.540;10.224;2023-03-14T04:41:38;11.20;1.00
5492;DHT22;2768;53.540;10.224;2023-03-14T04:47:35;11.10;1.00
5492;DHT22;2768;53.540;10.224;2023-03-14T04:53:30;11.20;1.00
5492;DHT22;2768;53.540;10.224;2023-03-14T04:59:26;11.30;1.00
5492;DHT22;2768;53.540;10.224;2023-03-14T05:05:25;11.30;1.00
5492;DHT22;2768;53.540;10.224;2023-03-14T05:11:32;11.30;1.00
5492;DHT22;2768;53.540;10.224;2023-03-14T05:17:25;11.30;1.00
5492;DHT22;2768;53.540;10.224;2023-03-14T05:23:37;11.30;1.00
5492;DHT22;2768;53.540;10.224;2023-03-14T05:29:58;11.20;1.00
5492;DHT22;2768;53.540;10.224;2023-03-14T05:36:11;11.20;1.00
5492;DHT22;2768;53.540;10.224;2023-03-14T05:42:28;11.10;1.00
5492;DHT22;2768;53.540;10.224;2023-03-14T05:48:42;11.00;1.00
5492;DHT22;2768;53.540;10.224;2023-03-14T05:54:59;11.00;1.00
5492;DHT22;2768;53.540;10.224;2023-03-14T06:01:09;10.90;1.00
5492;DHT22;2768;53.540;10.224;2023-03-14T06:07:20;10.90;1.00
5492;DHT22;2768;53.540;10.224;2023-03-14T06:13:13;10.80;1.00
5492;DHT22;2768;53.540;10.224;2023-03-14T06:19:07;10.90;1.00
5492;DHT22;2768;53.540;10.224;2023-03-14T06:25:04;10.90;1.00
5492;DHT22;2768;53.540;10.224;2023-03-14T06:30:59;10.90;1.00
5492;DHT22;2768;53.540;10.224;2023-03-14T06:36:58;10.90;1.00
5492;DHT22;2768;53.540;10.224;2023-03-14T06:42:53;11.00;1.00
5492;DHT22;2768;53.540;10.224;2023-03-14T06:48:48;10.90;1.00
5492;DHT22;2768;53.540;10.224;2023-03-14T06:54:41;10.80;1.00
5492;DHT22;2768;53.540;10.224;2023-03-14T07:00:37;10.70;1.00
5492;DHT22;2768;53.540;10.224;2023-03-14T07:06:30;10.80;1.00
5492;DHT22;2768;53.540;10.224;2023-03-14T07:12:23;10.80;1.00
5492;DHT22;2768;53.540;10.224;2023-03-14T07:18:20;10.80;1.00
5492;DHT22;2768;53.540;10.224;2023-03-14T07:24:14;10.80;1.00
5492;DHT22;2768;53.540;10.224;2023-03-14T07:30:08;10.80;1.00
5492;DHT22;2768;53.540;10.224;2023-03-14T07:36:03;10.80;1.00
5492;DHT22;2768;53.540;10.224;2023-03-14T07:41:57;10.70;1.00
5492;DHT22;2768;53.540;10.224;2023-03-14T07:48:09;10.70;1.00
5492;DHT22;2768;53.540;10.224;2023-03-14T07:54:04;10.80;1.00
5492;DHT22;2768;53.540;10.224;2023-03-14T07:59:57;10.90;1.00
5492;DHT22;2768;53.540;10.224;2023-03-14T08:05:51;11.00;1.00
5492;DHT22;2768;53.540;10.224;2023-03-14T08:11:46;11.00;1.00
5492;DHT22;2768;53.540;10.224;2023-03-14T08:17:40;11.00;1.00
5492;DHT22;2768;53.540;10.224;2023-03-14T08:23:34;10.90;1.00
5492;DHT22;2768;53.540;10.224;2023-03-14T08:29:29;11.00;1.00
5492;DHT22;2768;53.540;10.224;2023-03-14T08:35:22;11.10;1.00
5492;DHT22;2768;53.540;10.224;2023-03-14T08:41:18;11.20;1.00
5492;DHT22;2768;53.540;10.224;2023-03-14T08:47:12;11.10;1.00
5492;DHT22;2768;53.540;10.224;2023-03-14T08:53:06;11.10;1.00
5492;DHT22;2768;53.540;10.224;2023-03-14T08:59:00;11.00;1.00
5492;DHT22;2768;53.540;10.224;2023-03-14T09:04:55;11.00;1.00
5492;DHT22;2768;53.540;10.224;2023-03-14T09:10:49;11.20;1.00
5492;DHT22;2768;53.540;10.224;2023-03-14T09:16:42;11.10;1.00
5492;DHT22;2768;53.540;10.224;2023-03-14T09:22:37;11.30;1.00
5492;DHT22;2768;53.540;10.224;2023-03-14T09:28:30;11.20;1.00
5492;DHT22;2768;53.540;10.224;2023-03-14T09:34:24;11.40;1.00
5492;DHT22;2768;53.540;10.224;2023-03-14T09:40:19;11.30;99.90
5492;DHT22;2768;53.540;10.224;2023-03-14T09:46:14;11.20;1.00
5492;DHT22;2768;53.540;10.224;2023-03-14T09:52:13;11.10;1.00
5492;DHT22;2768;53.540;10.224;2023-03-14T09:58:12;11.20;1.00
5492;DHT22;2768;53.540;10.224;2023-03-14T10:04:10;11.10;1.00
5492;DHT22;2768;53.540;10.224;2023-03-14T10:10:10;10.60;1.00
5492;DHT22;2768;53.540;10.224;2023-03-14T10:16:06;10.00;1.00
5492;DHT22;2768;53.540;10.224;2023-03-14T10:22:01;9.50;1.00
5492;DHT22;2768;53.540;10.224;2023-03-14T10:27:56;9.20;1.00
5492;DHT22;2768;53.540;10.224;2023-03-14T10:34:00;8.80;1.00
5492;DHT22;2768;53.540;10.224;2023-03-14T10:39:54;8.70;1.00
5492;DHT22;2768;53.540;10.224;2023-03-14T10:45:53;8.80;1.00
5492;DHT22;2768;53.540;10.224;2023-03-14T10:51:51;8.40;1.00
5492;DHT22;2768;53.540;10.224;2023-03-14T10:57:44;8.40;1.00
5492;DHT22;2768;53.540;10.224;2023-03-14T11:03:40;7.90;1.00
5492;DHT22;2768;53.540;10.224;2023-03-14T11:09:41;7.10;1.00
5492;DHT22;2768;53.540;10.224;2023-03-14T11:15:38;6.60;1.00
5492;DHT22;2768;53.540;10.224;2023-03-14T11:21:39;6.60;1.00
5492;DHT22;2768;53.540;10.224;2023-03-14T11:27:41;6.70;1.00
5492;DHT22;2768;53.540;10.224;2023-03-14T11:33:37;6.30;1.00
5492;DHT22;2768;53.540;10.224;2023-03-14T11:39:38;6.20;1.00
5492;DHT22;2768;53.540;10.224;2023-03-14T11:45:36;6.00;1.00
5492;DHT22;2768;53.540;10.224;2023-03-14T11:51:34;5.90;1.00
5492;DHT22;2768;53.540;10.224;2023-03-14T11:57:29;6.00;1.00
5492;DHT22;2768;53.540;10.224;2023-03-14T12:03:31;6.00;1.00
5492;DHT22;2768;53.540;10.224;2023-03-14T12:09:27;6.10;1.00
5492;DHT22;2768;53.540;10.224;2023-03-14T12:15:22;6.00;1.00
5492;DHT22;2768;53.540;10.224;2023-03-14T12:21:18;6.20;1.00
5492;DHT22;2768;53.540;10.224;2023-03-14T12:27:13;6.30;1.00
5492;DHT22;2768;53.540;10.224;2023-03-14T12:33:31;6.30;99.90
5492;DHT22;2768;53.540;10.224;2023-03-14T12:39:33;6.00;99.90
5492;DHT22;2768;53.540;10.224;2023-03-14T12:45:30;6.10;99.90
5492;DHT22;2768;53.540;10.224;2023-03-14T12:51:34;6.40;99.90
5492;DHT22;2768;53.540;10.224;2023-03-14T12:57:28;6.50;99.90
5492;DHT22;2768;53.540;10.224;2023-03-14T13:03:27;6.70;99.90
5492;DHT22;2768;53.540;10.224;2023-03-14T13:09:53;6.60;99.90
5492;DHT22;2768;53.540;10.224;2023-03-14T13:15:49;6.60;99.90
5492;DHT22;2768;53.540;10.224;2023-03-14T13:21:43;6.70;99.90
5492;DHT22;2768;53.540;10.224;2023-03-14T13:27:38;6.70;99.90
5492;DHT22;2768;53.540;10.224;2023-03-14T13:33:33;6.80;99.90
5492;DHT22;2768;53.540;10.224;2023-03-14T13:39:28;6.90;99.90
5492;DHT22;2768;53.540;10.224;2023-03-14T13:45:24;7.00;99.90
5492;DHT22;2768;53.540;10.224;2023-03-14T13:51:18;7.10;99.90
5492;DHT22;2768;53.540;10.224;2023-03-14T13:57:12;7.20;99.90
5492;DHT22;2768;53.540;10.224;2023-03-14T14:03:10;7.40;99.90
5492;DHT22;2768;53.540;10.224;2023-03-14T14:09:10;7.30;99.90
5492;DHT22;2768;53.540;10.224;2023-03-14T14:15:05;7.40;99.90
5492;DHT22;2768;53.540;10.224;2023-03-14T14:21:02;7.20;99.90
5492;DHT22;2768;53.540;10.224;2023-03-14T14:27:00;7.10;99.90
5492;DHT22;2768;53.540;10.224;2023-03-14T14:33:11;6.90;99.90
5492;DHT22;2768;53.540;10.224;2023-03-14T14:39:11;7.30;99.90
5492;DHT22;2768;53.540;10.224;2023-03-14T14:45:14;7.10;99.90
5492;DHT22;2768;53.540;10.224;2023-03-14T14:51:09;7.60;99.90
5492;DHT22;2768;53.540;10.224;2023-03-14T14:57:05;7.60;99.90
5492;DHT22;2768;53.540;10.224;2023-03-14T15:02:59;7.30;95.20
5492;DHT22;2768;53.540;10.224;2023-03-14T15:08:53;7.30;83.70
5492;DHT22;2768;53.540;10.224;2023-03-14T15:14:47;7.10;62.70
5492;DHT22;2768;53.540;10.224;2023-03-14T15:20:41;7.00;57.00
5492;DHT22;2768;53.540;10.224;2023-03-14T15:26:35;7.10;57.10
5492;DHT22;2768;53.540;10.224;2023-03-14T15:32:29;6.80;46.90
5492;DHT22;2768;53.540;10.224;2023-03-14T15:38:23;6.80;53.10
5492;DHT22;2768;53.540;10.224;2023-03-14T15:44:17;6.90;64.60
5492;DHT22;2768;53.540;10.224;2023-03-14T15:50:12;7.00;69.20
5492;DHT22;2768;53.540;10.224;2023-03-14T15:56:07;6.90;59.80
5492;DHT22;2768;53.540;10.224;2023-03-14T16:02:03;6.90;59.50
5492;DHT22;2768;53.540;10.224;2023-03-14T16:07:57;6.90;60.90
5492;DHT22;2768;53.540;10.224;2023-03-14T16:13:50;6.70;44.50
5492;DHT22;2768;53.540;10.224;2023-03-14T16:19:44;6.70;44.60
5492;DHT22;2768;53.540;10.224;2023-03-14T16:25:39;6.70;44.80
5492;DHT22;2768;53.540;10.224;2023-03-14T16:31:32;6.60;44.00
5492;DHT22;2768;53.540;10.224;2023-03-14T16:37:25;6.60;50.00
5492;DHT22;2768;53.540;10.224;2023-03-14T16:43:20;6.30;39.20
5492;DHT22;2768;53.540;10.224;2023-03-14T16:49:13;6.20;41.80
5492;DHT22;2768;53.540;10.224;2023-03-14T16:55:07;6.30;51.40
5492;DHT22;2768;53.540;10.224;2023-03-14T17:01:05;6.30;58.10
5492;DHT22;2768;53.540;10.224;2023-03-14T17:07:01;6.00;56.10
5492;DHT22;2768;53.540;10.224;2023-03-14T17:12:54;6.00;54.30
5492;DHT22;2768;53.540;10.224;2023-03-14T17:18:49;5.90;56.00
5492;DHT22;2768;53.540;10.224;2023-03-14T17:24:42;5.90;51.30
5492;DHT22;2768;53.540;10.224;2023-03-14T17:30:35;5.70;51.00
5492;DHT22;2768;53.540;10.224;2023-03-14T17:36:30;5.70;53.60
5492;DHT22;2768;53.540;10.224;2023-03-14T17:42:23;5.60;55.80
5492;DHT22;2768;53.540;10.224;2023-03-14T17:48:16;5.60;62.00
5492;DHT22;2768;53.540;10.224;2023-03-14T17:54:11;5.50;62.60
5492;DHT22;2768;53.540;10.224;2023-03-14T18:00:06;5.40;66.10
5492;DHT22;2768;53.540;10.224;2023-03-14T18:06:04;5.30;72.20
5492;DHT22;2768;53.540;10.224;2023-03-14T18:11:58;5.30;81.10
5492;DHT22;2768;53.540;10.224;2023-03-14T18:18:00;5.40;90.80
5492;DHT22;2768;53.540;10.224;2023-03-14T18:23:54;5.40;93.30
5492;DHT22;2768;53.540;10.224;2023-03-14T18:29:49;5.20;93.50
5492;DHT22;2768;53.540;10.224;2023-03-14T18:35:42;5.20;95.60
5492;DHT22;2768;53.540;10.224;2023-03-14T18:41:36;5.20;95.40
5492;DHT22;2768;53.540;10.224;2023-03-14T18:47:32;5.30;99.10
5492;DHT22;2768;53.540;10.224;2023-03-14T18:53:27;5.40;99.90
5492;DHT22;2768;53.540;10.224;2023-03-14T18:59:23;4.80;99.90
5492;DHT22;2768;53.540;10.224;2023-03-14T19:05:17;4.30;99.90
5492;DHT22;2768;53.540;10.224;2023-03-14T19:11:11;4.10;99.90
5492;DHT22;2768;53.540;10.224;2023-03-14T19:17:05;4.20;99.90
5492;DHT22;2768;53.540;10.224;2023-03-14T19:22:59;4.30;99.90
5492;DHT22;2768;53.540;10.224;2023-03-14T19:28:52;4.20;99.90
5492;DHT22;2768;53.540;10.224;2023-03-14T19:34:46;4.30;99.90
5492;DHT22;2768;53.540;10.224;2023-03-14T19:40:41;4.30;99.90
5492;DHT22;2768;53.540;10.224;2023-03-14T19:46:35;4.30;99.90
5492;DHT22;2768;53.540;10.224;2023-03-14T19:52:29;4.40;99.90
5492;DHT22;2768;53.540;10.224;2023-03-14T19:58:23;4.30;99.90
5492;DHT22;2768;53.540;10.224;2023-03-14T20:04:17;4.40;99.90
5492;DHT22;2768;53.540;10.224;2023-03-14T20:10:11;4.30;99.90
5492;DHT22;2768;53.540;10.224;2023-03-14T20:16:08;4.20;99.90
5492;DHT22;2768;53.540;10.224;2023-03-14T20:22:02;4.00;99.90
5492;DHT22;2768;53.540;10.224;2023-03-14T20:27:56;3.90;99.90
5492;DHT22;2768;53.540;10.224;2023-03-14T20:33:50;4.10;99.90
5492;DHT22;2768;53.540;10.224;2023-03-14T20:39:43;4.10;99.90
5492;DHT22;2768;53.540;10.224;2023-03-14T20:45:37;4.20;99.90
5492;DHT22;2768;53.540;10.224;2023-03-14T20:51:32;3.40;99.90
5492;DHT22;2768;53.540;10.224;2023-03-14T20:57:25;3.40;99.90
5492;DHT22;2768;53.540;10.224;2023-03-14T21:03:18;3.40;99.90
5492;DHT22;2768;53.540;10.224;2023-03-14T21:09:15;3.40;99.90
5492;DHT22;2768;53.540;10.224;2023-03-14T21:15:09;3.20;99.90
5492;DHT22;2768;53.540;10.224;2023-03-14T21:21:05;3.20;99.90
5492;DHT22;2768;53.540;10.224;2023-03-14T21:27:00;3.20;1.00
5492;DHT22;2768;53.540;10.224;2023-03-14T21:32:53;3.20;1.00
5492;DHT22;2768;53.540;10.224;2023-03-14T21:38:47;3.00;1.00
5492;DHT22;2768;53.540;10.224;2023-03-14T21:44:42;3.10;99.90
5492;DHT22;2768;53.540;10.224;2023-03-14T21:50:39;2.90;99.90
5492;DHT22;2768;53.540;10.224;2023-03-14T21:56:32;3.00;1.00
5492;DHT22;2768;53.540;10.224;2023-03-14T22:02:27;2.90;1.00
5492;DHT22;2768;53.540;10.224;2023-03-14T22:08:20;3.00;1.00
5492;DHT22;2768;53.540;10.224;2023-03-14T22:14:14;3.00;1.00
5492;DHT22;2768;53.540;10.224;2023-03-14T22:20:09;3.00;1.00
5492;DHT22;2768;53.540;10.224;2023-03-14T22:26:04;3.00;1.00
5492;DHT22;2768;53.540;10.224;2023-03-14T22:31:57;3.20;1.00
5492;DHT22;2768;53.540;10.224;2023-03-14T22:37:52;3.30;1.00
5492;DHT22;2768;53.540;10.224;2023-03-14T22:43:45;3.20;1.00
5492;DHT22;2768;53.540;10.224;2023-03-14T22:49:40;3.20;1.00
5492;DHT22;2768;53.540;10.224;2023-03-14T22:55:35;3.00;1.00
5492;DHT22;2768;53.540;10.224;2023-03-14T23:01:28;3.00;1.00
5492;DHT22;2768;53.540;10.224;2023-03-14T23:07:21;3.00;99.90
5492;DHT22;2768;53.540;10.224;2023-03-14T23:13:15;2.90;99.90
5492;DHT22;2768;53.540;10.224;2023-03-14T23:19:09;2.90;99.90
5492;DHT22;2768;53.540;10.224;2023-03-14T23:25:03;2.70;99.90
5492;DHT22;2768;53.540;10.224;2023-03-14T23:30:58;2.60;99.90
5492;DHT22;2768;53.540;10.224;2023-03-14T23:36:51;2.60;99.90
5492;DHT22;2768;53.540;10.224;2023-03-14T23:42:47;2.60;99.90
5492;DHT22;2768;53.540;10.224;2023-03-14T23:48:42;2.70;99.90
5492;DHT22;2768;53.540;10.224;2023-03-14T23:54:38;2.70;99.90
